sensor_id;sensor_type;location;lat;lon;timestamp;temperature;humidity
12726;DHT22;6427;49.754;6.106;2024-02-21T00:00:07;9.50;99.90
12726;DHT22;6427;49.754;6.106;2024-02-21T00:02:34;9.50;99.90
12726;DHT22;6427;49.754;6.106;2024-02-21T00:05:02;9.80;99.90
12726;DHT22;6427;49.754;6.106;2024-02-21T00:07:30;9.70;99.90
12726;DHT22;6427;49.754;6.106;2024-02-21T00:09:57;9.70;99.90
12726;DHT22;6427;49.754;6.106;2024-02-21T00:12:25;9.60;99.90
12726;DHT22;6427;49.754;6.106;2024-02-21T00:14:52;9.90;99.90
12726;DHT22;6427;49.754;6.106;2024-02-21T00:17:20;9.80;99.90
12726;DHT22;6427;49.754;6.106;2024-02-21T00:19:48;9.70;99.90
12726;DHT22;6427;49.754;6.106;2024-02-21T00:22:16;9.70;99.90
12726;DHT22;6427;49.754;6.106;2024-02-21T00:24:43;9.60;99.90
12726;DHT22;6427;49.754;6.106;2024-02-21T00:27:11;9.60;99.90
12726;DHT22;6427;49.754;6.106;2024-02-21T00:29:39;9.50;99.90
12726;DHT22;6427;49.754;6.106;2024-02-21T00:32:07;9.50;99.90
12726;DHT22;6427;49.754;6.106;2024-02-21T00:34:35;9.50;99.90
12726;DHT22;6427;49.754;6.106;2024-02-21T00:37:02;9.50;99.90
12726;DHT22;6427;49.754;6.106;2024-02-21T00:39:30;9.40;99.90
12726;DHT22;6427;49.754;6.106;2024-02-21T00:41:57;9.40;99.90
12726;DHT22;6427;49.754;6.106;2024-02-21T00:44:25;9.40;99.90
12726;DHT22;6427;49.754;6.106;2024-02-21T00:46:53;9.40;99.90
12726;DHT22;6427;49.754;6.106;2024-02-21T00:49:20;9.30;99.90
12726;DHT22;6427;49.754;6.106;2024-02-21T00:51:48;9.30;99.90
12726;DHT22;6427;49.754;6.106;2024-02-21T00:54:15;9.30;99.90
12726;DHT22;6427;49.754;6.106;2024-02-21T00:56:44;9.20;99.90
12726;DHT22;6427;49.754;6.106;2024-02-21T00:59:11;9.20;99.90
12726;DHT22;6427;49.754;6.106;2024-02-21T01:01:40;9.50;99.90
12726;DHT22;6427;49.754;6.106;2024-02-21T01:04:07;9.50;99.90
12726;DHT22;6427;49.754;6.106;2024-02-21T01:06:35;9.50;99.90
12726;DHT22;6427;49.754;6.106;2024-02-21T01:09:02;9.40;99.90
12726;DHT22;6427;49.754;6.106;2024-02-21T01:11:30;9.30;99.90
12726;DHT22;6427;49.754;6.106;2024-02-21T01:13:58;9.30;99.90
12726;DHT22;6427;49.754;6.106;2024-02-21T01:16:25;9.30;99.90
12726;DHT22;6427;49.754;6.106;2024-02-21T01:18:53;9.30;99.90
12726;DHT22;6427;49.754;6.106;2024-02-21T01:21:20;9.20;99.90
12726;DHT22;6427;49.754;6.106;2024-02-21T01:23:48;9.60;99.90
12726;DHT22;6427;49.754;6.106;2024-02-21T01:26:16;9.40;99.90
12726;DHT22;6427;49.754;6.106;2024-02-21T01:28:44;9.40;99.90
12726;DHT22;6427;49.754;6.106;2024-02-21T01:31:12;9.30;99.90
12726;DHT22;6427;49.754;6.106;2024-02-21T01:33:39;9.30;99.90
12726;DHT22;6427;49.754;6.106;2024-02-21T01:36:08;9.20;99.90
12726;DHT22;6427;49.754;6.106;2024-02-21T01:38:35;9.20;99.90
12726;DHT22;6427;49.754;6.106;2024-02-21T01:41:03;9.10;99.90
12726;DHT22;6427;49.754;6.106;2024-02-21T01:43:31;9.20;99.90
12726;DHT22;6427;49.754;6.106;2024-02-21T01:45:59;9.10;99.90
12726;DHT22;6427;49.754;6.106;2024-02-21T01:48:26;9.10;99.90
12726;DHT22;6427;49.754;6.106;2024-02-21T01:50:54;9.10;99.90
12726;DHT22;6427;49.754;6.106;2024-02-21T01:53:31;9.40;99.90
12726;DHT22;6427;49.754;6.106;2024-02-21T01:55:58;9.20;99.90
12726;DHT22;6427;49.754;6.106;2024-02-21T01:58:26;9.20;99.90
12726;DHT22;6427;49.754;6.106;2024-02-21T02:00:54;9.20;99.90
12726;DHT22;6427;49.754;6.106;2024-02-21T02:03:21;9.10;99.90
12726;DHT22;6427;49.754;6.106;2024-02-21T02:05:49;9.10;99.90
12726;DHT22;6427;49.754;6.106;2024-02-21T02:08:19;9.10;99.90
12726;DHT22;6427;49.754;6.106;2024-02-21T02:10:44;9.00;99.90
12726;DHT22;6427;49.754;6.106;2024-02-21T02:13:12;9.00;99.90
12726;DHT22;6427;49.754;6.106;2024-02-21T02:18:07;9.30;99.90
12726;DHT22;6427;49.754;6.106;2024-02-21T02:20:35;9.20;99.90
12726;DHT22;6427;49.754;6.106;2024-02-21T02:23:11;9.10;99.90
12726;DHT22;6427;49.754;6.106;2024-02-21T02:25:39;9.10;99.90
12726;DHT22;6427;49.754;6.106;2024-02-21T02:28:06;9.00;99.90
12726;DHT22;6427;49.754;6.106;2024-02-21T02:30:37;9.00;99.90
12726;DHT22;6427;49.754;6.106;2024-02-21T02:33:02;9.00;99.90
12726;DHT22;6427;49.754;6.106;2024-02-21T02:35:29;9.30;99.90
12726;DHT22;6427;49.754;6.106;2024-02-21T02:37:56;9.60;99.90
12726;DHT22;6427;49.754;6.106;2024-02-21T02:40:25;9.30;99.90
12726;DHT22;6427;49.754;6.106;2024-02-21T02:42:52;9.20;99.90
12726;DHT22;6427;49.754;6.106;2024-02-21T02:45:21;9.10;99.90
12726;DHT22;6427;49.754;6.106;2024-02-21T02:47:48;9.10;99.90
12726;DHT22;6427;49.754;6.106;2024-02-21T02:50:16;9.00;99.90
12726;DHT22;6427;49.754;6.106;2024-02-21T02:52:43;9.00;99.90
12726;DHT22;6427;49.754;6.106;2024-02-21T02:55:11;8.90;99.90
12726;DHT22;6427;49.754;6.106;2024-02-21T02:57:39;8.90;99.90
12726;DHT22;6427;49.754;6.106;2024-02-21T03:00:06;8.90;99.90
12726;DHT22;6427;49.754;6.106;2024-02-21T03:02:34;8.90;99.90
12726;DHT22;6427;49.754;6.106;2024-02-21T03:05:02;9.20;99.90
12726;DHT22;6427;49.754;6.106;2024-02-21T03:07:29;9.50;99.90
12726;DHT22;6427;49.754;6.106;2024-02-21T03:09:58;9.20;99.90
12726;DHT22;6427;49.754;6.106;2024-02-21T03:12:25;9.20;99.90
12726;DHT22;6427;49.754;6.106;2024-02-21T03:14:54;9.10;99.90
12726;DHT22;6427;49.754;6.106;2024-02-21T03:17:22;9.00;99.90
12726;DHT22;6427;49.754;6.106;2024-02-21T03:19:50;9.00;99.90
12726;DHT22;6427;49.754;6.106;2024-02-21T03:22:18;9.00;99.90
12726;DHT22;6427;49.754;6.106;2024-02-21T03:24:45;8.90;99.90
12726;DHT22;6427;49.754;6.106;2024-02-21T03:27:13;8.90;99.90
12726;DHT22;6427;49.754;6.106;2024-02-21T03:29:41;8.90;99.90
12726;DHT22;6427;49.754;6.106;2024-02-21T03:32:09;8.90;99.90
12726;DHT22;6427;49.754;6.106;2024-02-21T03:34:37;8.90;99.90
12726;DHT22;6427;49.754;6.106;2024-02-21T03:37:05;8.90;99.90
12726;DHT22;6427;49.754;6.106;2024-02-21T03:39:33;8.90;99.90
12726;DHT22;6427;49.754;6.106;2024-02-21T03:42:01;8.80;99.90
12726;DHT22;6427;49.754;6.106;2024-02-21T03:44:29;9.20;99.90
12726;DHT22;6427;49.754;6.106;2024-02-21T03:46:57;9.20;99.90
12726;DHT22;6427;49.754;6.106;2024-02-21T03:49:24;9.20;99.90
12726;DHT22;6427;49.754;6.106;2024-02-21T03:51:52;9.10;99.90
12726;DHT22;6427;49.754;6.106;2024-02-21T03:54:20;9.00;99.90
12726;DHT22;6427;49.754;6.106;2024-02-21T03:56:47;9.00;99.90
12726;DHT22;6427;49.754;6.106;2024-02-21T03:59:15;9.00;99.90
12726;DHT22;6427;49.754;6.106;2024-02-21T04:01:42;8.90;99.90
12726;DHT22;6427;49.754;6.106;2024-02-21T04:04:10;8.90;99.90
12726;DHT22;6427;49.754;6.106;2024-02-21T04:06:45;8.90;99.90
12726;DHT22;6427;49.754;6.106;2024-02-21T04:09:05;8.80;99.90
12726;DHT22;6427;49.754;6.106;2024-02-21T04:11:33;9.10;99.90
12726;DHT22;6427;49.754;6.106;2024-02-21T04:14:00;9.00;99.90
12726;DHT22;6427;49.754;6.106;2024-02-21T04:16:28;8.90;99.90
12726;DHT22;6427;49.754;6.106;2024-02-21T04:18:56;8.80;99.90
12726;DHT22;6427;49.754;6.106;2024-02-21T04:21:23;8.80;99.90
12726;DHT22;6427;49.754;6.106;2024-02-21T04:23:52;8.70;99.90
12726;DHT22;6427;49.754;6.106;2024-02-21T04:26:19;8.70;99.90
12726;DHT22;6427;49.754;6.106;2024-02-21T04:28:47;8.70;99.90
12726;DHT22;6427;49.754;6.106;2024-02-21T04:31:15;8.70;99.90
12726;DHT22;6427;49.754;6.106;2024-02-21T04:33:43;8.70;99.90
12726;DHT22;6427;49.754;6.106;2024-02-21T04:36:10;8.70;99.90
12726;DHT22;6427;49.754;6.106;2024-02-21T04:38:39;8.60;99.90
12726;DHT22;6427;49.754;6.106;2024-02-21T04:41:06;8.60;99.90
12726;DHT22;6427;49.754;6.106;2024-02-21T04:43:34;8.60;99.90
12726;DHT22;6427;49.754;6.106;2024-02-21T04:46:01;8.60;99.90
12726;DHT22;6427;49.754;6.106;2024-02-21T04:48:29;8.60;99.90
12726;DHT22;6427;49.754;6.106;2024-02-21T04:50:57;8.90;99.90
12726;DHT22;6427;49.754;6.106;2024-02-21T04:53:24;8.90;99.90
12726;DHT22;6427;49.754;6.106;2024-02-21T04:55:53;9.10;99.90
12726;DHT22;6427;49.754;6.106;2024-02-21T04:58:21;9.00;99.90
12726;DHT22;6427;49.754;6.106;2024-02-21T05:00:49;8.90;99.90
12726;DHT22;6427;49.754;6.106;2024-02-21T05:03:17;8.90;99.90
12726;DHT22;6427;49.754;6.106;2024-02-21T05:05:45;9.10;99.90
12726;DHT22;6427;49.754;6.106;2024-02-21T05:08:13;9.10;99.90
12726;DHT22;6427;49.754;6.106;2024-02-21T05:10:40;9.00;99.90
12726;DHT22;6427;49.754;6.106;2024-02-21T05:13:08;8.90;99.90
12726;DHT22;6427;49.754;6.106;2024-02-21T05:15:36;8.80;99.90
12726;DHT22;6427;49.754;6.106;2024-02-21T05:18:04;8.70;99.90
12726;DHT22;6427;49.754;6.106;2024-02-21T05:20:32;8.70;99.90
12726;DHT22;6427;49.754;6.106;2024-02-21T05:22:59;8.70;99.90
12726;DHT22;6427;49.754;6.106;2024-02-21T05:25:28;8.70;99.90
12726;DHT22;6427;49.754;6.106;2024-02-21T05:27:55;8.70;99.90
12726;DHT22;6427;49.754;6.106;2024-02-21T05:30:23;9.00;99.90
12726;DHT22;6427;49.754;6.106;2024-02-21T05:32:50;9.30;99.90
12726;DHT22;6427;49.754;6.106;2024-02-21T05:35:18;9.10;99.90
12726;DHT22;6427;49.754;6.106;2024-02-21T05:37:46;9.00;99.90
12726;DHT22;6427;49.754;6.106;2024-02-21T05:40:13;9.30;99.90
12726;DHT22;6427;49.754;6.106;2024-02-21T05:42:41;9.10;99.90
12726;DHT22;6427;49.754;6.106;2024-02-21T05:45:08;9.00;99.90
12726;DHT22;6427;49.754;6.106;2024-02-21T05:47:36;9.30;99.90
12726;DHT22;6427;49.754;6.106;2024-02-21T05:50:04;9.10;99.90
12726;DHT22;6427;49.754;6.106;2024-02-21T05:52:31;9.00;99.90
12726;DHT22;6427;49.754;6.106;2024-02-21T05:54:59;9.00;99.90
12726;DHT22;6427;49.754;6.106;2024-02-21T05:57:26;8.90;99.90
12726;DHT22;6427;49.754;6.106;2024-02-21T05:59:54;8.90;99.90
12726;DHT22;6427;49.754;6.106;2024-02-21T06:02:22;9.20;99.90
12726;DHT22;6427;49.754;6.106;2024-02-21T06:04:49;9.10;99.90
12726;DHT22;6427;49.754;6.106;2024-02-21T06:07:17;9.00;99.90
12726;DHT22;6427;49.754;6.106;2024-02-21T06:09:44;8.90;99.90
12726;DHT22;6427;49.754;6.106;2024-02-21T06:12:12;8.80;99.90
12726;DHT22;6427;49.754;6.106;2024-02-21T06:14:40;8.80;99.90
12726;DHT22;6427;49.754;6.106;2024-02-21T06:17:08;9.10;99.90
12726;DHT22;6427;49.754;6.106;2024-02-21T06:19:36;9.00;99.90
12726;DHT22;6427;49.754;6.106;2024-02-21T06:22:03;9.00;99.90
12726;DHT22;6427;49.754;6.106;2024-02-21T06:24:31;9.20;99.90
12726;DHT22;6427;49.754;6.106;2024-02-21T06:26:59;9.00;99.90
12726;DHT22;6427;49.754;6.106;2024-02-21T06:29:27;9.00;99.90
12726;DHT22;6427;49.754;6.106;2024-02-21T06:31:54;8.90;99.90
12726;DHT22;6427;49.754;6.106;2024-02-21T06:34:22;9.20;99.90
12726;DHT22;6427;49.754;6.106;2024-02-21T06:36:50;9.10;99.90
12726;DHT22;6427;49.754;6.106;2024-02-21T06:39:17;9.00;99.90
12726;DHT22;6427;49.754;6.106;2024-02-21T06:41:45;8.90;99.90
12726;DHT22;6427;49.754;6.106;2024-02-21T06:44:12;9.20;99.90
12726;DHT22;6427;49.754;6.106;2024-02-21T06:46:40;9.10;99.90
12726;DHT22;6427;49.754;6.106;2024-02-21T06:49:08;9.30;99.90
12726;DHT22;6427;49.754;6.106;2024-02-21T06:51:36;9.30;99.90
12726;DHT22;6427;49.754;6.106;2024-02-21T06:54:04;9.40;99.90
12726;DHT22;6427;49.754;6.106;2024-02-21T06:56:32;9.40;99.90
12726;DHT22;6427;49.754;6.106;2024-02-21T06:58:59;9.30;99.90
12726;DHT22;6427;49.754;6.106;2024-02-21T07:01:27;9.10;99.90
12726;DHT22;6427;49.754;6.106;2024-02-21T07:03:55;9.10;99.90
12726;DHT22;6427;49.754;6.106;2024-02-21T07:06:22;9.00;99.90
12726;DHT22;6427;49.754;6.106;2024-02-21T07:08:50;9.30;99.90
12726;DHT22;6427;49.754;6.106;2024-02-21T07:11:17;9.20;99.90
12726;DHT22;6427;49.754;6.106;2024-02-21T07:13:45;9.10;99.90
12726;DHT22;6427;49.754;6.106;2024-02-21T07:16:13;9.40;99.90
12726;DHT22;6427;49.754;6.106;2024-02-21T07:18:41;9.20;99.90
12726;DHT22;6427;49.754;6.106;2024-02-21T07:21:09;9.20;99.90
12726;DHT22;6427;49.754;6.106;2024-02-21T07:23:36;9.10;99.90
12726;DHT22;6427;49.754;6.106;2024-02-21T07:26:04;9.10;99.90
12726;DHT22;6427;49.754;6.106;2024-02-21T07:28:31;9.10;99.90
12726;DHT22;6427;49.754;6.106;2024-02-21T07:30:59;9.00;99.90
12726;DHT22;6427;49.754;6.106;2024-02-21T07:33:26;9.40;99.90
12726;DHT22;6427;49.754;6.106;2024-02-21T07:35:54;9.20;99.90
12726;DHT22;6427;49.754;6.106;2024-02-21T07:38:22;9.50;99.90
12726;DHT22;6427;49.754;6.106;2024-02-21T07:40:49;9.40;99.90
12726;DHT22;6427;49.754;6.106;2024-02-21T07:43:18;9.20;99.90
12726;DHT22;6427;49.754;6.106;2024-02-21T07:45:45;9.20;99.90
12726;DHT22;6427;49.754;6.106;2024-02-21T07:48:13;9.20;99.90
12726;DHT22;6427;49.754;6.106;2024-02-21T07:50:40;9.20;99.90
12726;DHT22;6427;49.754;6.106;2024-02-21T07:53:08;9.20;99.90
12726;DHT22;6427;49.754;6.106;2024-02-21T07:55:36;9.20;99.90
12726;DHT22;6427;49.754;6.106;2024-02-21T07:58:03;9.10;99.90
12726;DHT22;6427;49.754;6.106;2024-02-21T08:00:31;9.10;99.90
12726;DHT22;6427;49.754;6.106;2024-02-21T08:02:58;9.10;99.90
12726;DHT22;6427;49.754;6.106;2024-02-21T08:05:27;9.20;99.90
12726;DHT22;6427;49.754;6.106;2024-02-21T08:07:54;9.20;99.90
12726;DHT22;6427;49.754;6.106;2024-02-21T08:10:22;9.20;99.90
12726;DHT22;6427;49.754;6.106;2024-02-21T08:12:50;9.20;99.90
12726;DHT22;6427;49.754;6.106;2024-02-21T08:15:17;9.20;99.90
12726;DHT22;6427;49.754;6.106;2024-02-21T08:17:46;9.60;99.90
12726;DHT22;6427;49.754;6.106;2024-02-21T08:20:14;9.50;99.90
12726;DHT22;6427;49.754;6.106;2024-02-21T08:22:41;9.50;99.90
12726;DHT22;6427;49.754;6.106;2024-02-21T08:25:09;9.50;99.90
12726;DHT22;6427;49.754;6.106;2024-02-21T08:27:37;9.40;99.90
12726;DHT22;6427;49.754;6.106;2024-02-21T08:30:04;9.40;99.90
12726;DHT22;6427;49.754;6.106;2024-02-21T08:32:32;9.40;99.90
12726;DHT22;6427;49.754;6.106;2024-02-21T08:35:00;9.40;99.90
12726;DHT22;6427;49.754;6.106;2024-02-21T08:37:28;9.40;99.90
12726;DHT22;6427;49.754;6.106;2024-02-21T08:39:55;9.40;99.90
12726;DHT22;6427;49.754;6.106;2024-02-21T08:42:23;9.40;99.90
12726;DHT22;6427;49.754;6.106;2024-02-21T08:44:51;9.40;99.90
12726;DHT22;6427;49.754;6.106;2024-02-21T08:47:19;9.40;99.90
12726;DHT22;6427;49.754;6.106;2024-02-21T08:49:47;9.40;99.90
12726;DHT22;6427;49.754;6.106;2024-02-21T08:52:15;9.40;99.90
12726;DHT22;6427;49.754;6.106;2024-02-21T08:54:43;9.80;99.90
12726;DHT22;6427;49.754;6.106;2024-02-21T08:57:11;9.80;99.90
12726;DHT22;6427;49.754;6.106;2024-02-21T08:59:39;9.70;99.90
12726;DHT22;6427;49.754;6.106;2024-02-21T09:02:06;9.70;99.90
12726;DHT22;6427;49.754;6.106;2024-02-21T09:04:34;9.70;99.90
12726;DHT22;6427;49.754;6.106;2024-02-21T09:07:01;9.70;99.90
12726;DHT22;6427;49.754;6.106;2024-02-21T09:09:29;9.70;99.90
12726;DHT22;6427;49.754;6.106;2024-02-21T09:11:57;9.70;99.90
12726;DHT22;6427;49.754;6.106;2024-02-21T09:14:24;9.70;99.90
12726;DHT22;6427;49.754;6.106;2024-02-21T09:16:52;9.70;99.90
12726;DHT22;6427;49.754;6.106;2024-02-21T09:19:19;10.10;99.90
12726;DHT22;6427;49.754;6.106;2024-02-21T09:21:47;10.00;99.90
12726;DHT22;6427;49.754;6.106;2024-02-21T09:24:15;10.30;99.90
12726;DHT22;6427;49.754;6.106;2024-02-21T09:26:43;10.10;99.90
12726;DHT22;6427;49.754;6.106;2024-02-21T09:29:11;10.10;99.90
12726;DHT22;6427;49.754;6.106;2024-02-21T09:31:38;10.00;99.90
12726;DHT22;6427;49.754;6.106;2024-02-21T09:34:06;10.40;99.90
12726;DHT22;6427;49.754;6.106;2024-02-21T09:36:33;10.30;99.90
12726;DHT22;6427;49.754;6.106;2024-02-21T09:39:02;10.10;99.90
12726;DHT22;6427;49.754;6.106;2024-02-21T09:41:30;10.10;99.90
12726;DHT22;6427;49.754;6.106;2024-02-21T09:43:58;10.10;99.90
12726;DHT22;6427;49.754;6.106;2024-02-21T09:46:41;10.10;99.90
12726;DHT22;6427;49.754;6.106;2024-02-21T09:51:39;10.30;99.90
12726;DHT22;6427;49.754;6.106;2024-02-21T09:54:07;10.30;99.90
12726;DHT22;6427;49.754;6.106;2024-02-21T09:56:34;10.20;99.90
12726;DHT22;6427;49.754;6.106;2024-02-21T09:59:02;10.20;99.90
12726;DHT22;6427;49.754;6.106;2024-02-21T10:01:29;10.20;99.90
12726;DHT22;6427;49.754;6.106;2024-02-21T10:03:57;10.20;99.90
12726;DHT22;6427;49.754;6.106;2024-02-21T10:06:25;10.30;99.90
12726;DHT22;6427;49.754;6.106;2024-02-21T10:08:53;10.30;99.90
12726;DHT22;6427;49.754;6.106;2024-02-21T10:11:23;10.30;99.90
12726;DHT22;6427;49.754;6.106;2024-02-21T10:13:51;10.30;99.90
12726;DHT22;6427;49.754;6.106;2024-02-21T10:16:18;10.30;99.90
12726;DHT22;6427;49.754;6.106;2024-02-21T10:18:46;10.60;99.90
12726;DHT22;6427;49.754;6.106;2024-02-21T10:21:14;10.60;99.90
12726;DHT22;6427;49.754;6.106;2024-02-21T10:23:42;10.50;99.90
12726;DHT22;6427;49.754;6.106;2024-02-21T10:26:09;10.50;99.90
12726;DHT22;6427;49.754;6.106;2024-02-21T10:28:37;10.50;99.90
12726;DHT22;6427;49.754;6.106;2024-02-21T10:31:05;10.80;99.90
12726;DHT22;6427;49.754;6.106;2024-02-21T10:33:33;10.80;99.90
12726;DHT22;6427;49.754;6.106;2024-02-21T10:36:07;10.70;99.90
12726;DHT22;6427;49.754;6.106;2024-02-21T10:38:35;10.70;99.90
12726;DHT22;6427;49.754;6.106;2024-02-21T10:41:03;10.90;99.90
12726;DHT22;6427;49.754;6.106;2024-02-21T10:43:30;10.90;99.90
12726;DHT22;6427;49.754;6.106;2024-02-21T10:45:58;11.20;99.90
12726;DHT22;6427;49.754;6.106;2024-02-21T10:48:29;11.10;99.90
12726;DHT22;6427;49.754;6.106;2024-02-21T10:50:56;11.10;99.90
12726;DHT22;6427;49.754;6.106;2024-02-21T10:54:13;11.00;99.90
12726;DHT22;6427;49.754;6.106;2024-02-21T10:55:57;10.90;99.90
12726;DHT22;6427;49.754;6.106;2024-02-21T10:58:24;10.80;99.90
12726;DHT22;6427;49.754;6.106;2024-02-21T11:00:52;10.80;99.90
12726;DHT22;6427;49.754;6.106;2024-02-21T11:03:19;10.80;99.90
12726;DHT22;6427;49.754;6.106;2024-02-21T11:05:47;11.10;99.90
12726;DHT22;6427;49.754;6.106;2024-02-21T11:08:15;10.90;99.90
12726;DHT22;6427;49.754;6.106;2024-02-21T11:10:45;10.90;99.90
12726;DHT22;6427;49.754;6.106;2024-02-21T11:13:10;10.80;99.90
12726;DHT22;6427;49.754;6.106;2024-02-21T11:15:38;10.70;99.90
12726;DHT22;6427;49.754;6.106;2024-02-21T11:18:06;10.70;99.90
12726;DHT22;6427;49.754;6.106;2024-02-21T11:20:37;11.00;99.90
12726;DHT22;6427;49.754;6.106;2024-02-21T11:23:05;11.00;99.90
12726;DHT22;6427;49.754;6.106;2024-02-21T11:25:32;11.00;99.90
12726;DHT22;6427;49.754;6.106;2024-02-21T11:28:04;11.20;99.90
12726;DHT22;6427;49.754;6.106;2024-02-21T11:30:32;11.20;99.90
12726;DHT22;6427;49.754;6.106;2024-02-21T11:33:03;11.00;99.90
12726;DHT22;6427;49.754;6.106;2024-02-21T11:35:32;11.00;99.90
12726;DHT22;6427;49.754;6.106;2024-02-21T11:38:11;11.00;99.90
12726;DHT22;6427;49.754;6.106;2024-02-21T11:40:38;11.00;99.90
12726;DHT22;6427;49.754;6.106;2024-02-21T11:43:06;11.30;99.90
12726;DHT22;6427;49.754;6.106;2024-02-21T11:45:34;11.20;99.90
12726;DHT22;6427;49.754;6.106;2024-02-21T11:48:02;11.10;99.90
12726;DHT22;6427;49.754;6.106;2024-02-21T11:50:29;11.10;99.90
12726;DHT22;6427;49.754;6.106;2024-02-21T11:52:57;11.00;99.90
12726;DHT22;6427;49.754;6.106;2024-02-21T11:55:25;11.00;99.90
12726;DHT22;6427;49.754;6.106;2024-02-21T11:57:52;11.00;99.90
12726;DHT22;6427;49.754;6.106;2024-02-21T12:00:21;11.30;99.90
12726;DHT22;6427;49.754;6.106;2024-02-21T12:02:48;11.30;99.90
12726;DHT22;6427;49.754;6.106;2024-02-21T12:05:18;11.60;99.90
12726;DHT22;6427;49.754;6.106;2024-02-21T12:07:44;11.60;99.90
12726;DHT22;6427;49.754;6.106;2024-02-21T12:10:12;11.50;99.90
12726;DHT22;6427;49.754;6.106;2024-02-21T12:12:39;11.70;99.90
12726;DHT22;6427;49.754;6.106;2024-02-21T12:15:07;11.60;99.90
12726;DHT22;6427;49.754;6.106;2024-02-21T12:17:35;11.50;99.90
12726;DHT22;6427;49.754;6.106;2024-02-21T12:20:06;11.40;99.90
12726;DHT22;6427;49.754;6.106;2024-02-21T12:22:36;11.50;99.90
12726;DHT22;6427;49.754;6.106;2024-02-21T12:25:04;11.40;99.90
12726;DHT22;6427;49.754;6.106;2024-02-21T12:27:32;11.40;99.90
12726;DHT22;6427;49.754;6.106;2024-02-21T12:30:00;11.40;99.90
12726;DHT22;6427;49.754;6.106;2024-02-21T12:32:29;11.40;99.90
12726;DHT22;6427;49.754;6.106;2024-02-21T12:34:57;11.40;99.90
12726;DHT22;6427;49.754;6.106;2024-02-21T12:37:25;11.40;99.90
12726;DHT22;6427;49.754;6.106;2024-02-21T12:39:52;11.50;99.90
12726;DHT22;6427;49.754;6.106;2024-02-21T12:42:20;11.80;99.90
12726;DHT22;6427;49.754;6.106;2024-02-21T12:44:47;11.80;99.90
12726;DHT22;6427;49.754;6.106;2024-02-21T12:47:15;11.70;99.90
12726;DHT22;6427;49.754;6.106;2024-02-21T12:49:43;12.10;99.90
12726;DHT22;6427;49.754;6.106;2024-02-21T12:52:11;12.10;99.90
12726;DHT22;6427;49.754;6.106;2024-02-21T12:54:39;12.10;99.90
12726;DHT22;6427;49.754;6.106;2024-02-21T12:57:06;12.00;99.90
12726;DHT22;6427;49.754;6.106;2024-02-21T12:59:34;12.00;99.90
12726;DHT22;6427;49.754;6.106;2024-02-21T13:02:01;12.00;99.90
12726;DHT22;6427;49.754;6.106;2024-02-21T13:04:29;12.30;99.90
12726;DHT22;6427;49.754;6.106;2024-02-21T13:06:57;12.20;99.90
12726;DHT22;6427;49.754;6.106;2024-02-21T13:09:24;12.10;99.90
12726;DHT22;6427;49.754;6.106;2024-02-21T13:11:52;12.00;99.90
12726;DHT22;6427;49.754;6.106;2024-02-21T13:14:19;12.00;99.90
12726;DHT22;6427;49.754;6.106;2024-02-21T13:16:47;11.90;99.90
12726;DHT22;6427;49.754;6.106;2024-02-21T13:19:15;12.20;99.90
12726;DHT22;6427;49.754;6.106;2024-02-21T13:21:42;12.10;99.90
12726;DHT22;6427;49.754;6.106;2024-02-21T13:24:11;11.90;99.90
12726;DHT22;6427;49.754;6.106;2024-02-21T13:26:38;11.90;99.90
12726;DHT22;6427;49.754;6.106;2024-02-21T13:29:06;11.90;99.90
12726;DHT22;6427;49.754;6.106;2024-02-21T13:31:33;11.80;99.90
12726;DHT22;6427;49.754;6.106;2024-02-21T13:34:01;11.80;99.90
12726;DHT22;6427;49.754;6.106;2024-02-21T13:36:29;11.70;99.90
12726;DHT22;6427;49.754;6.106;2024-02-21T13:38:56;11.70;99.90
12726;DHT22;6427;49.754;6.106;2024-02-21T13:41:25;12.00;99.90
12726;DHT22;6427;49.754;6.106;2024-02-21T13:43:52;12.00;99.90
12726;DHT22;6427;49.754;6.106;2024-02-21T13:46:20;11.90;99.90
12726;DHT22;6427;49.754;6.106;2024-02-21T13:48:47;11.80;99.90
12726;DHT22;6427;49.754;6.106;2024-02-21T13:51:15;11.80;99.90
12726;DHT22;6427;49.754;6.106;2024-02-21T13:53:43;11.70;99.90
12726;DHT22;6427;49.754;6.106;2024-02-21T13:56:10;11.70;99.90
12726;DHT22;6427;49.754;6.106;2024-02-21T13:58:38;12.00;99.90
12726;DHT22;6427;49.754;6.106;2024-02-21T14:01:05;11.90;99.90
12726;DHT22;6427;49.754;6.106;2024-02-21T14:03:33;11.80;99.90
12726;DHT22;6427;49.754;6.106;2024-02-21T14:06:01;11.80;99.90
12726;DHT22;6427;49.754;6.106;2024-02-21T14:08:28;11.80;99.90
12726;DHT22;6427;49.754;6.106;2024-02-21T14:10:56;11.70;99.90
12726;DHT22;6427;49.754;6.106;2024-02-21T14:13:23;11.70;99.90
12726;DHT22;6427;49.754;6.106;2024-02-21T14:15:51;11.60;99.90
12726;DHT22;6427;49.754;6.106;2024-02-21T14:18:18;11.60;99.90
12726;DHT22;6427;49.754;6.106;2024-02-21T14:20:46;11.70;99.90
12726;DHT22;6427;49.754;6.106;2024-02-21T14:23:14;11.60;99.90
12726;DHT22;6427;49.754;6.106;2024-02-21T14:25:42;11.90;99.90
12726;DHT22;6427;49.754;6.106;2024-02-21T14:28:10;11.90;99.90
12726;DHT22;6427;49.754;6.106;2024-02-21T14:30:37;11.80;99.90
12726;DHT22;6427;49.754;6.106;2024-02-21T14:33:05;11.80;99.90
12726;DHT22;6427;49.754;6.106;2024-02-21T14:35:32;11.70;99.90
12726;DHT22;6427;49.754;6.106;2024-02-21T14:38:01;11.50;99.90
12726;DHT22;6427;49.754;6.106;2024-02-21T14:40:28;11.50;99.90
12726;DHT22;6427;49.754;6.106;2024-02-21T14:42:57;11.80;99.90
12726;DHT22;6427;49.754;6.106;2024-02-21T14:45:25;11.70;99.90
12726;DHT22;6427;49.754;6.106;2024-02-21T14:47:53;11.70;99.90
12726;DHT22;6427;49.754;6.106;2024-02-21T14:50:20;11.60;99.90
12726;DHT22;6427;49.754;6.106;2024-02-21T14:52:48;11.50;99.90
12726;DHT22;6427;49.754;6.106;2024-02-21T14:55:16;11.40;99.90
12726;DHT22;6427;49.754;6.106;2024-02-21T14:57:44;11.40;99.90
12726;DHT22;6427;49.754;6.106;2024-02-21T15:00:12;11.30;99.90
12726;DHT22;6427;49.754;6.106;2024-02-21T15:02:39;11.30;99.90
12726;DHT22;6427;49.754;6.106;2024-02-21T15:05:08;11.30;99.90
12726;DHT22;6427;49.754;6.106;2024-02-21T15:07:36;11.30;99.90
12726;DHT22;6427;49.754;6.106;2024-02-21T15:10:03;11.30;99.90
12726;DHT22;6427;49.754;6.106;2024-02-21T15:12:31;11.30;99.90
12726;DHT22;6427;49.754;6.106;2024-02-21T15:14:58;11.30;99.90
12726;DHT22;6427;49.754;6.106;2024-02-21T15:17:27;11.30;99.90
12726;DHT22;6427;49.754;6.106;2024-02-21T15:19:54;11.30;99.90
12726;DHT22;6427;49.754;6.106;2024-02-21T15:22:22;11.30;99.90
12726;DHT22;6427;49.754;6.106;2024-02-21T15:24:49;11.60;99.90
12726;DHT22;6427;49.754;6.106;2024-02-21T15:27:19;11.50;99.90
12726;DHT22;6427;49.754;6.106;2024-02-21T15:29:46;11.40;99.90
12726;DHT22;6427;49.754;6.106;2024-02-21T15:32:14;11.30;99.90
12726;DHT22;6427;49.754;6.106;2024-02-21T15:34:41;11.20;99.90
12726;DHT22;6427;49.754;6.106;2024-02-21T15:37:09;11.20;99.90
12726;DHT22;6427;49.754;6.106;2024-02-21T15:39:37;11.10;99.90
12726;DHT22;6427;49.754;6.106;2024-02-21T15:42:05;11.00;99.90
12726;DHT22;6427;49.754;6.106;2024-02-21T15:44:33;11.00;99.90
12726;DHT22;6427;49.754;6.106;2024-02-21T15:47:00;10.90;99.90
12726;DHT22;6427;49.754;6.106;2024-02-21T15:49:28;10.90;99.90
12726;DHT22;6427;49.754;6.106;2024-02-21T15:51:55;10.80;99.90
12726;DHT22;6427;49.754;6.106;2024-02-21T15:54:23;10.80;99.90
12726;DHT22;6427;49.754;6.106;2024-02-21T15:56:51;10.80;99.90
12726;DHT22;6427;49.754;6.106;2024-02-21T15:59:18;10.70;99.90
12726;DHT22;6427;49.754;6.106;2024-02-21T16:01:47;10.70;99.90